BAW275 EGLL-KLAS
Flight info
| Callsign | BAW275 |
|---|---|
| Flight time | N/A |
| Altitude | 34000 |
| Route | ULTIB T420 TNT UL28 PENIL DCT DEJEM DCT OZRAT DCT WETFI DCT REVNU DCT AGORI/M085F340 DCT 60N020W 64N030W 66N040W 67N050W DCT DARUB/N0490F340 DCT 66N070W 64N080W 60N091W 55N100W DCT DURUR/N0489F360 DCT KATEN DCT BIL DCT MLF DCT STEWW |
| Aircraft | A35K/H-SDE2E3GHIJ3J4J5LM1ORWXY/LB1D1 |
Departure
| Time | 2026-05-06 15:51 |
|---|---|
| Airport | London Heathrow Airport (EGLL) |
Arrival
| Time | N/A |
|---|---|
| Airport | Harry Reid International Airport (KLAS) |
| Time | Latitude | Longitude | Altitude | Speed | Heading |
|---|---|---|---|---|---|
| 2026-05-06 15:30 | 51.47060 | -0.48586 | 92 ft | 0 kts | 269° |
| 2026-05-06 15:36 | 51.47060 | -0.48560 | 93 ft | 4 kts | 269° |
| 2026-05-06 15:37 | 51.47062 | -0.48517 | 92 ft | 4 kts | 257° |
| 2026-05-06 15:37 | 51.47072 | -0.48481 | 92 ft | 4 kts | 213° |
| 2026-05-06 15:37 | 51.47093 | -0.48474 | 94 ft | 4 kts | 180° |
| 2026-05-06 15:37 | 51.47106 | -0.48474 | 94 ft | 1 kts | 180° |
| 2026-05-06 15:38 | 51.47107 | -0.48474 | 95 ft | 0 kts | 180° |
| 2026-05-06 15:43 | 51.47106 | -0.48474 | 95 ft | 0 kts | 179° |
| 2026-05-06 15:43 | 51.47096 | -0.48473 | 92 ft | 3 kts | 178° |
| 2026-05-06 15:43 | 51.47072 | -0.48472 | 96 ft | 4 kts | 177° |
| 2026-05-06 15:43 | 51.47040 | -0.48470 | 92 ft | 5 kts | 178° |
| 2026-05-06 15:44 | 51.46993 | -0.48469 | 94 ft | 8 kts | 179° |
| 2026-05-06 15:44 | 51.46935 | -0.48469 | 94 ft | 9 kts | 181° |
| 2026-05-06 15:44 | 51.46873 | -0.48470 | 96 ft | 7 kts | 179° |
| 2026-05-06 15:44 | 51.46819 | -0.48468 | 92 ft | 8 kts | 178° |
| 2026-05-06 15:45 | 51.46764 | -0.48471 | 92 ft | 4 kts | 197° |
| 2026-05-06 15:45 | 51.46750 | -0.48505 | 93 ft | 4 kts | 247° |
| 2026-05-06 15:45 | 51.46743 | -0.48588 | 95 ft | 9 kts | 266° |
| 2026-05-06 15:45 | 51.46738 | -0.48685 | 94 ft | 9 kts | 256° |
| 2026-05-06 15:46 | 51.46693 | -0.48737 | 96 ft | 8 kts | 197° |
| 2026-05-06 15:46 | 51.46635 | -0.48753 | 93 ft | 4 kts | 192° |
| 2026-05-06 15:46 | 51.46633 | -0.48754 | 94 ft | 0 kts | 192° |
| 2026-05-06 15:48 | 51.46632 | -0.48754 | 94 ft | 1 kts | 192° |
| 2026-05-06 15:48 | 51.46623 | -0.48757 | 92 ft | 2 kts | 193° |
| 2026-05-06 15:48 | 51.46592 | -0.48771 | 92 ft | 8 kts | 196° |
| 2026-05-06 15:48 | 51.46535 | -0.48782 | 96 ft | 9 kts | 171° |
| 2026-05-06 15:49 | 51.46489 | -0.48728 | 96 ft | 8 kts | 121° |
| 2026-05-06 15:49 | 51.46477 | -0.48638 | 92 ft | 9 kts | 89° |
| 2026-05-06 15:49 | 51.46479 | -0.48479 | 92 ft | 30 kts | 88° |
| 2026-05-06 15:49 | 51.46480 | -0.47759 | 95 ft | 99 kts | 91° |
| 2026-05-06 15:50 | 51.46485 | -0.46308 | 98 ft | 161 kts | 90° |
| 2026-05-06 15:50 | 51.46493 | -0.44980 | 101 ft | 197 kts | 90° |
| 2026-05-06 15:50 | 51.46494 | -0.44778 | 112 ft | 201 kts | 89° |
| 2026-05-06 15:50 | 51.46499 | -0.43906 | 305 ft | 204 kts | 88° |
| 2026-05-06 15:51 | 51.46482 | -0.42052 | 1033 ft | 203 kts | 86° |
| 2026-05-06 15:51 | 51.46561 | -0.41194 | 1407 ft | 204 kts | 73° |
| 2026-05-06 15:51 | 51.47315 | -0.39262 | 1843 ft | 215 kts | 45° |
| 2026-05-06 15:51 | 51.48470 | -0.37587 | 2095 ft | 232 kts | 39° |
| 2026-05-06 15:52 | 51.48888 | -0.37010 | 2159 ft | 238 kts | 40° |
| 2026-05-06 15:52 | 51.50229 | -0.35080 | 2566 ft | 248 kts | 41° |
| 2026-05-06 15:52 | 51.50972 | -0.33933 | 2913 ft | 250 kts | 45° |
| 2026-05-06 15:52 | 51.51916 | -0.31615 | 3456 ft | 253 kts | 64° |
| 2026-05-06 15:53 | 51.52269 | -0.30231 | 3730 ft | 254 kts | 67° |
| 2026-05-06 15:53 | 51.52861 | -0.27543 | 4242 ft | 258 kts | 69° |
| 2026-05-06 15:53 | 51.53446 | -0.24795 | 4778 ft | 261 kts | 69° |
| 2026-05-06 15:53 | 51.54046 | -0.22015 | 5290 ft | 263 kts | 68° |
| 2026-05-06 15:54 | 51.54970 | -0.19490 | 5734 ft | 263 kts | 43° |
| 2026-05-06 15:54 | 51.56402 | -0.18148 | 5946 ft | 260 kts | 13° |
| 2026-05-06 15:54 | 51.58189 | -0.18253 | 5988 ft | 260 kts | 339° |
| 2026-05-06 15:54 | 51.59670 | -0.19890 | 6001 ft | 262 kts | 316° |
| 2026-05-06 15:55 | 51.60876 | -0.21990 | 5994 ft | 265 kts | 312° |
| 2026-05-06 15:55 | 51.62220 | -0.24051 | 5986 ft | 265 kts | 324° |
| 2026-05-06 15:55 | 51.63748 | -0.25715 | 5988 ft | 264 kts | 328° |
| 2026-05-06 15:55 | 51.65293 | -0.27246 | 6041 ft | 264 kts | 329° |
| 2026-05-06 15:56 | 51.66877 | -0.28776 | 6389 ft | 266 kts | 329° |
| 2026-05-06 15:56 | 51.67945 | -0.29807 | 6773 ft | 267 kts | 329° |
| 2026-05-06 15:56 | 51.70077 | -0.31856 | 7572 ft | 269 kts | 329° |
| 2026-05-06 15:56 | 51.71147 | -0.32887 | 7945 ft | 271 kts | 329° |
| 2026-05-06 15:57 | 51.73309 | -0.34975 | 8704 ft | 273 kts | 329° |
| 2026-05-06 15:57 | 51.74400 | -0.36031 | 9058 ft | 275 kts | 328° |
| 2026-05-06 15:57 | 51.76053 | -0.37634 | 9592 ft | 278 kts | 328° |
| 2026-05-06 15:57 | 51.78274 | -0.39784 | 10270 ft | 285 kts | 328° |
| 2026-05-06 15:58 | 51.79442 | -0.40918 | 10448 ft | 295 kts | 328° |
| 2026-05-06 15:58 | 51.80993 | -0.42419 | 10625 ft | 308 kts | 329° |
| 2026-05-06 15:58 | 51.82885 | -0.44232 | 10874 ft | 322 kts | 329° |
| 2026-05-06 15:58 | 51.84854 | -0.46123 | 11123 ft | 336 kts | 329° |
| 2026-05-06 15:59 | 51.86894 | -0.48091 | 11335 ft | 349 kts | 328° |
| 2026-05-06 15:59 | 51.89023 | -0.50151 | 11577 ft | 362 kts | 328° |
| 2026-05-06 15:59 | 51.91192 | -0.52263 | 11803 ft | 373 kts | 328° |
| 2026-05-06 15:59 | 51.93447 | -0.54461 | 12238 ft | 378 kts | 328° |
| 2026-05-06 16:00 | 51.95724 | -0.56675 | 12747 ft | 381 kts | 328° |
| 2026-05-06 16:00 | 51.97987 | -0.58881 | 13237 ft | 384 kts | 328° |
| 2026-05-06 16:00 | 52.00307 | -0.61150 | 13739 ft | 387 kts | 328° |
| 2026-05-06 16:00 | 52.02611 | -0.63407 | 14234 ft | 389 kts | 328° |
| 2026-05-06 16:01 | 52.04948 | -0.65700 | 14715 ft | 392 kts | 328° |
| 2026-05-06 16:01 | 52.07272 | -0.67987 | 15166 ft | 395 kts | 328° |
| 2026-05-06 16:01 | 52.09648 | -0.70324 | 15638 ft | 398 kts | 328° |
| 2026-05-06 16:01 | 52.12023 | -0.72662 | 16108 ft | 399 kts | 328° |
| 2026-05-06 16:02 | 52.14384 | -0.74984 | 16547 ft | 402 kts | 328° |
| 2026-05-06 16:02 | 52.16798 | -0.77362 | 16970 ft | 405 kts | 328° |
| 2026-05-06 16:02 | 52.19218 | -0.79753 | 17408 ft | 407 kts | 327° |
| 2026-05-06 16:02 | 52.21662 | -0.82176 | 17841 ft | 410 kts | 327° |
| 2026-05-06 16:03 | 52.24082 | -0.84577 | 18273 ft | 413 kts | 327° |
| 2026-05-06 16:03 | 52.26551 | -0.87022 | 18704 ft | 416 kts | 327° |
| 2026-05-06 16:03 | 52.29035 | -0.89485 | 19140 ft | 418 kts | 327° |
| 2026-05-06 16:03 | 52.31538 | -0.91977 | 19561 ft | 422 kts | 327° |
| 2026-05-06 16:04 | 52.34023 | -0.94455 | 19973 ft | 424 kts | 327° |
| 2026-05-06 16:04 | 52.36568 | -0.96996 | 20400 ft | 427 kts | 327° |
| 2026-05-06 16:04 | 52.39123 | -0.99546 | 20853 ft | 429 kts | 327° |
| 2026-05-06 16:04 | 52.41651 | -1.02074 | 21280 ft | 432 kts | 327° |
| 2026-05-06 16:05 | 52.44240 | -1.04665 | 21674 ft | 435 kts | 327° |
| 2026-05-06 16:05 | 52.46816 | -1.07248 | 22067 ft | 438 kts | 327° |
| 2026-05-06 16:05 | 52.49437 | -1.09882 | 22456 ft | 441 kts | 327° |
| 2026-05-06 16:05 | 52.52071 | -1.12531 | 22840 ft | 444 kts | 327° |
| 2026-05-06 16:06 | 52.54698 | -1.15177 | 23240 ft | 447 kts | 327° |
| 2026-05-06 16:06 | 52.57362 | -1.17859 | 23627 ft | 449 kts | 327° |
| 2026-05-06 16:06 | 52.60014 | -1.20530 | 23976 ft | 452 kts | 327° |
| 2026-05-06 16:06 | 52.62715 | -1.23260 | 24335 ft | 455 kts | 327° |
| 2026-05-06 16:07 | 52.65429 | -1.26009 | 24686 ft | 457 kts | 327° |
| 2026-05-06 16:07 | 52.68122 | -1.28743 | 25040 ft | 460 kts | 327° |
| 2026-05-06 16:07 | 52.70859 | -1.31521 | 25406 ft | 461 kts | 327° |
| 2026-05-06 16:07 | 52.73607 | -1.34309 | 25751 ft | 464 kts | 326° |
| 2026-05-06 16:08 | 52.76328 | -1.37078 | 26077 ft | 466 kts | 326° |
| 2026-05-06 16:08 | 52.79104 | -1.39908 | 26397 ft | 468 kts | 326° |
| 2026-05-06 16:08 | 52.81866 | -1.42736 | 26708 ft | 470 kts | 326° |
| 2026-05-06 16:08 | 52.84667 | -1.45610 | 27010 ft | 472 kts | 326° |
| 2026-05-06 16:09 | 52.87473 | -1.48490 | 27303 ft | 474 kts | 326° |
| 2026-05-06 16:09 | 52.90243 | -1.51336 | 27603 ft | 476 kts | 326° |
| 2026-05-06 16:09 | 52.93070 | -1.54245 | 27870 ft | 478 kts | 326° |
| 2026-05-06 16:09 | 52.95915 | -1.57179 | 28127 ft | 480 kts | 326° |
| 2026-05-06 16:10 | 52.98725 | -1.60081 | 28388 ft | 481 kts | 326° |
| 2026-05-06 16:10 | 53.01593 | -1.63043 | 28658 ft | 483 kts | 326° |
| 2026-05-06 16:10 | 53.04431 | -1.65979 | 28960 ft | 483 kts | 326° |
| 2026-05-06 16:10 | 53.07284 | -1.68934 | 29316 ft | 481 kts | 326° |
| 2026-05-06 16:11 | 53.10118 | -1.71875 | 29636 ft | 480 kts | 326° |
| 2026-05-06 16:11 | 53.12959 | -1.74833 | 29938 ft | 480 kts | 325° |
| 2026-05-06 16:11 | 53.15771 | -1.77769 | 30261 ft | 479 kts | 326° |
| 2026-05-06 16:11 | 53.18592 | -1.80741 | 30566 ft | 477 kts | 324° |
| 2026-05-06 16:12 | 53.21240 | -1.84083 | 30829 ft | 474 kts | 316° |
| 2026-05-06 16:12 | 53.23540 | -1.87905 | 31072 ft | 471 kts | 308° |
| 2026-05-06 16:12 | 53.25503 | -1.92316 | 31297 ft | 468 kts | 300° |
| 2026-05-06 16:12 | 53.27088 | -1.96988 | 31541 ft | 467 kts | 296° |
| 2026-05-06 16:13 | 53.28591 | -2.01843 | 31761 ft | 466 kts | 295° |
| 2026-05-06 16:13 | 53.30036 | -2.06718 | 31956 ft | 466 kts | 295° |
| 2026-05-06 16:13 | 53.31446 | -2.11560 | 32157 ft | 466 kts | 294° |
| 2026-05-06 16:13 | 53.32865 | -2.16452 | 32404 ft | 465 kts | 294° |
| 2026-05-06 16:14 | 53.34271 | -2.21282 | 32611 ft | 464 kts | 294° |
| 2026-05-06 16:14 | 53.35594 | -2.26236 | 32760 ft | 463 kts | 289° |
| 2026-05-06 16:14 | 53.36655 | -2.31272 | 32932 ft | 463 kts | 288° |
| 2026-05-06 16:14 | 53.37669 | -2.36370 | 33118 ft | 462 kts | 287° |
| 2026-05-06 16:15 | 53.38664 | -2.41525 | 33298 ft | 461 kts | 287° |
| 2026-05-06 16:15 | 53.39634 | -2.46663 | 33448 ft | 461 kts | 286° |
| 2026-05-06 16:15 | 53.40589 | -2.51754 | 33587 ft | 461 kts | 286° |
| 2026-05-06 16:15 | 53.41560 | -2.56919 | 33736 ft | 461 kts | 286° |
| 2026-05-06 16:16 | 53.42513 | -2.62000 | 33885 ft | 461 kts | 286° |
| 2026-05-06 16:16 | 53.43476 | -2.67144 | 33997 ft | 461 kts | 286° |
| 2026-05-06 16:16 | 53.45396 | -2.77421 | 34021 ft | 466 kts | 287° |
| 2026-05-06 16:17 | 53.47333 | -2.87824 | 34027 ft | 468 kts | 287° |
| 2026-05-06 16:17 | 53.49272 | -2.98236 | 34043 ft | 467 kts | 287° |
| 2026-05-06 16:18 | 53.51185 | -3.08633 | 34044 ft | 467 kts | 286° |
| 2026-05-06 16:18 | 53.53096 | -3.19099 | 34045 ft | 467 kts | 287° |
| 2026-05-06 16:19 | 53.54941 | -3.29245 | 34046 ft | 468 kts | 287° |
| 2026-05-06 16:19 | 53.56829 | -3.39681 | 34044 ft | 467 kts | 287° |
| 2026-05-06 16:20 | 53.58716 | -3.50147 | 34035 ft | 468 kts | 287° |
| 2026-05-06 16:20 | 53.60596 | -3.60661 | 34043 ft | 468 kts | 287° |
| 2026-05-06 16:21 | 53.62454 | -3.71156 | 34039 ft | 468 kts | 286° |
| 2026-05-06 16:21 | 53.64256 | -3.81677 | 34031 ft | 468 kts | 286° |
| 2026-05-06 16:22 | 53.66041 | -3.92226 | 34031 ft | 468 kts | 286° |
| 2026-05-06 16:22 | 53.67826 | -4.02804 | 34029 ft | 468 kts | 286° |
| 2026-05-06 16:23 | 53.69603 | -4.13363 | 34025 ft | 468 kts | 286° |
| 2026-05-06 16:23 | 53.71371 | -4.23930 | 34033 ft | 468 kts | 286° |
| 2026-05-06 16:24 | 53.73124 | -4.34484 | 34020 ft | 468 kts | 286° |
| 2026-05-06 16:24 | 53.74865 | -4.45047 | 34019 ft | 468 kts | 286° |
| 2026-05-06 16:25 | 53.76612 | -4.55667 | 34020 ft | 468 kts | 286° |
| 2026-05-06 16:25 | 53.78355 | -4.66316 | 34015 ft | 468 kts | 286° |
| 2026-05-06 16:26 | 53.80072 | -4.76889 | 34016 ft | 467 kts | 285° |
| 2026-05-06 16:26 | 53.81120 | -4.87713 | 34022 ft | 468 kts | 276° |
| 2026-05-06 16:27 | 53.81546 | -4.98745 | 34018 ft | 469 kts | 274° |
| 2026-05-06 16:27 | 53.81861 | -5.09773 | 34012 ft | 469 kts | 274° |
| 2026-05-06 16:28 | 53.82167 | -5.20805 | 34016 ft | 469 kts | 274° |
| 2026-05-06 16:28 | 53.82478 | -5.31811 | 34018 ft | 469 kts | 275° |
| 2026-05-06 16:29 | 53.82789 | -5.42838 | 34016 ft | 470 kts | 275° |
| 2026-05-06 16:29 | 53.83631 | -5.53715 | 34010 ft | 466 kts | 285° |
| 2026-05-06 16:30 | 53.84935 | -5.62618 | 34006 ft | 466 kts | 287° |
| 2026-05-06 16:30 | 53.86905 | -5.75001 | 34008 ft | 466 kts | 287° |
| 2026-05-06 16:31 | 53.88591 | -5.85595 | 34007 ft | 466 kts | 287° |
| 2026-05-06 16:31 | 53.90153 | -5.95567 | 34002 ft | 466 kts | 287° |
| 2026-05-06 16:32 | 53.91801 | -6.06221 | 33999 ft | 466 kts | 287° |
| 2026-05-06 16:32 | 53.93430 | -6.16847 | 33998 ft | 466 kts | 287° |
| 2026-05-06 16:33 | 53.95063 | -6.27545 | 33993 ft | 467 kts | 287° |
| 2026-05-06 16:34 | 53.97487 | -6.43551 | 33989 ft | 466 kts | 287° |
| 2026-05-06 16:34 | 53.99082 | -6.54172 | 33991 ft | 466 kts | 286° |
| 2026-05-06 16:35 | 54.00672 | -6.64846 | 33989 ft | 466 kts | 286° |
| 2026-05-06 16:35 | 54.02254 | -6.75532 | 33989 ft | 464 kts | 286° |
| 2026-05-06 16:36 | 54.03819 | -6.86164 | 33990 ft | 463 kts | 286° |
| 2026-05-06 16:36 | 54.05373 | -6.96827 | 33988 ft | 463 kts | 286° |
| 2026-05-06 16:37 | 54.06912 | -7.07423 | 33982 ft | 463 kts | 286° |
| 2026-05-06 16:37 | 54.08446 | -7.18059 | 33981 ft | 462 kts | 286° |
| 2026-05-06 16:38 | 54.09979 | -7.28751 | 33981 ft | 463 kts | 286° |
| 2026-05-06 16:38 | 54.11492 | -7.39384 | 33981 ft | 463 kts | 286° |
| 2026-05-06 16:39 | 54.12995 | -7.50056 | 33980 ft | 464 kts | 286° |
| 2026-05-06 16:39 | 54.14496 | -7.60782 | 33980 ft | 464 kts | 286° |
| 2026-05-06 16:40 | 54.15982 | -7.71452 | 33980 ft | 464 kts | 286° |
| 2026-05-06 16:40 | 54.17466 | -7.82170 | 33979 ft | 465 kts | 286° |
| 2026-05-06 16:41 | 54.18947 | -7.92956 | 33981 ft | 465 kts | 286° |
| 2026-05-06 16:41 | 54.20161 | -8.01872 | 33978 ft | 465 kts | 286° |
| 2026-05-06 16:42 | 54.21619 | -8.12631 | 33988 ft | 465 kts | 286° |
| 2026-05-06 16:42 | 54.23072 | -8.23438 | 33990 ft | 465 kts | 286° |
| 2026-05-06 16:43 | 54.24510 | -8.34206 | 33988 ft | 465 kts | 286° |
| 2026-05-06 16:43 | 54.25936 | -8.44961 | 33990 ft | 464 kts | 286° |
| 2026-05-06 16:44 | 54.27347 | -8.55710 | 33990 ft | 463 kts | 285° |
| 2026-05-06 16:44 | 54.28741 | -8.66413 | 33991 ft | 462 kts | 285° |
| 2026-05-06 16:45 | 54.30362 | -8.78935 | 33989 ft | 461 kts | 285° |
| 2026-05-06 16:45 | 54.31512 | -8.87868 | 33990 ft | 461 kts | 285° |
| 2026-05-06 16:46 | 54.32876 | -8.98555 | 33989 ft | 459 kts | 285° |
| 2026-05-06 16:46 | 54.34230 | -9.09240 | 33989 ft | 460 kts | 285° |
| 2026-05-06 16:47 | 54.35581 | -9.20007 | 33990 ft | 460 kts | 285° |
| 2026-05-06 16:47 | 54.36914 | -9.30693 | 33975 ft | 460 kts | 285° |
| 2026-05-06 16:48 | 54.38241 | -9.41420 | 33973 ft | 461 kts | 285° |
| 2026-05-06 16:48 | 54.39564 | -9.52200 | 33980 ft | 461 kts | 285° |
| 2026-05-06 16:49 | 54.40875 | -9.62962 | 33977 ft | 462 kts | 285° |
| 2026-05-06 16:49 | 54.42185 | -9.73825 | 33982 ft | 463 kts | 285° |
| 2026-05-06 16:50 | 54.43485 | -9.84671 | 33980 ft | 463 kts | 285° |
| 2026-05-06 16:50 | 54.44774 | -9.95472 | 33981 ft | 463 kts | 285° |
| 2026-05-06 16:51 | 54.46866 | -10.05822 | 33978 ft | 456 kts | 300° |
| 2026-05-06 16:51 | 54.50528 | -10.14569 | 33978 ft | 448 kts | 316° |
| 2026-05-06 16:52 | 54.55423 | -10.21033 | 33981 ft | 437 kts | 327° |
| 2026-05-06 16:52 | 54.60540 | -10.26487 | 33983 ft | 429 kts | 329° |
| 2026-05-06 16:53 | 54.65607 | -10.31762 | 33981 ft | 422 kts | 329° |
| 2026-05-06 16:53 | 54.70580 | -10.37017 | 33983 ft | 414 kts | 328° |
| 2026-05-06 16:54 | 54.75423 | -10.42187 | 33982 ft | 406 kts | 328° |
| 2026-05-06 16:54 | 54.80174 | -10.47287 | 33982 ft | 398 kts | 328° |
| 2026-05-06 16:55 | 54.84833 | -10.52298 | 33981 ft | 389 kts | 327° |
| 2026-05-06 16:55 | 54.89374 | -10.57190 | 33982 ft | 380 kts | 327° |
| 2026-05-06 16:56 | 54.93817 | -10.61995 | 33980 ft | 370 kts | 327° |
| 2026-05-06 16:56 | 54.98112 | -10.66658 | 33982 ft | 359 kts | 327° |
| 2026-05-06 16:57 | 55.02277 | -10.71184 | 33981 ft | 347 kts | 327° |
| 2026-05-06 16:57 | 55.06295 | -10.75559 | 33982 ft | 335 kts | 327° |
| 2026-05-06 16:58 | 55.10175 | -10.79794 | 33971 ft | 320 kts | 327° |
| 2026-05-06 16:58 | 55.13855 | -10.83826 | 33951 ft | 306 kts | 326° |
| 2026-05-06 16:58 | 55.15668 | -10.85816 | 33838 ft | 307 kts | 326° |
| 2026-05-06 16:59 | 55.17455 | -10.87784 | 33833 ft | 303 kts | 326° |
| 2026-05-06 16:59 | 55.21018 | -10.91697 | 33659 ft | 304 kts | 326° |
| 2026-05-06 16:59 | 55.22828 | -10.93671 | 33501 ft | 306 kts | 326° |
| 2026-05-06 17:00 | 55.24632 | -10.95647 | 33472 ft | 304 kts | 326° |
| 2026-05-06 17:00 | 55.28174 | -10.99558 | 33383 ft | 302 kts | 326° |
| 2026-05-06 17:00 | 55.29961 | -11.01563 | 33223 ft | 305 kts | 325° |
| 2026-05-06 17:01 | 55.31750 | -11.03600 | 33151 ft | 305 kts | 325° |
| 2026-05-06 17:01 | 55.35239 | -11.07642 | 33188 ft | 300 kts | 324° |
| 2026-05-06 17:01 | 55.36984 | -11.09711 | 33046 ft | 302 kts | 323° |
| 2026-05-06 17:02 | 55.38710 | -11.11797 | 32937 ft | 304 kts | 323° |
| 2026-05-06 17:02 | 55.42152 | -11.16069 | 32935 ft | 300 kts | 322° |
| 2026-05-06 17:03 | 55.45529 | -11.20392 | 32776 ft | 302 kts | 321° |
| 2026-05-06 17:03 | 55.48854 | -11.24868 | 32775 ft | 298 kts | 319° |
| 2026-05-06 17:03 | 55.50471 | -11.27174 | 32747 ft | 298 kts | 319° |
| 2026-05-06 17:04 | 55.52072 | -11.29538 | 32643 ft | 300 kts | 318° |
| 2026-05-06 17:04 | 55.53654 | -11.31929 | 32585 ft | 300 kts | 317° |
| 2026-05-06 17:04 | 55.55212 | -11.34332 | 32597 ft | 298 kts | 317° |
| 2026-05-06 17:04 | 55.56769 | -11.36785 | 32583 ft | 298 kts | 316° |
| 2026-05-06 17:05 | 55.58308 | -11.39253 | 32509 ft | 298 kts | 316° |
| 2026-05-06 17:05 | 55.59815 | -11.41738 | 32484 ft | 298 kts | 315° |
| 2026-05-06 17:05 | 55.61313 | -11.44270 | 32487 ft | 296 kts | 314° |
| 2026-05-06 17:05 | 55.62793 | -11.46836 | 32449 ft | 297 kts | 313° |
| 2026-05-06 17:06 | 55.64243 | -11.49403 | 32420 ft | 297 kts | 313° |
| 2026-05-06 17:06 | 55.65695 | -11.52017 | 32407 ft | 296 kts | 312° |
| 2026-05-06 17:06 | 55.67110 | -11.54616 | 32367 ft | 296 kts | 312° |
| 2026-05-06 17:06 | 55.68534 | -11.57278 | 32334 ft | 296 kts | 311° |
| 2026-05-06 17:07 | 55.69953 | -11.59947 | 32307 ft | 296 kts | 311° |
| 2026-05-06 17:07 | 55.71350 | -11.62579 | 32311 ft | 295 kts | 311° |
| 2026-05-06 17:07 | 55.72755 | -11.65219 | 32318 ft | 293 kts | 311° |
| 2026-05-06 17:07 | 55.74167 | -11.67863 | 32293 ft | 294 kts | 311° |
| 2026-05-06 17:08 | 55.75581 | -11.70502 | 32241 ft | 294 kts | 311° |
| 2026-05-06 17:08 | 55.76984 | -11.73118 | 32189 ft | 295 kts | 311° |
| 2026-05-06 17:08 | 55.78387 | -11.75745 | 32184 ft | 295 kts | 311° |
| 2026-05-06 17:08 | 55.79799 | -11.78414 | 32235 ft | 293 kts | 311° |
| 2026-05-06 17:09 | 55.81185 | -11.81049 | 32271 ft | 291 kts | 311° |
| 2026-05-06 17:09 | 55.82578 | -11.83682 | 32239 ft | 291 kts | 311° |
| 2026-05-06 17:09 | 55.83973 | -11.86263 | 32172 ft | 293 kts | 311° |
| 2026-05-06 17:09 | 55.85413 | -11.88884 | 32126 ft | 295 kts | 312° |
| 2026-05-06 17:10 | 55.86850 | -11.91485 | 32130 ft | 293 kts | 312° |
| 2026-05-06 17:10 | 55.88278 | -11.94068 | 32183 ft | 291 kts | 312° |
| 2026-05-06 17:10 | 55.89677 | -11.96624 | 32223 ft | 289 kts | 311° |
| 2026-05-06 17:10 | 55.91083 | -11.99218 | 32173 ft | 290 kts | 311° |
| 2026-05-06 17:11 | 55.92484 | -12.01791 | 32091 ft | 292 kts | 311° |
| 2026-05-06 17:11 | 55.93898 | -12.04364 | 32022 ft | 293 kts | 312° |
| 2026-05-06 17:11 | 55.95331 | -12.06980 | 32001 ft | 293 kts | 311° |
| 2026-05-06 17:11 | 55.96742 | -12.09574 | 32022 ft | 291 kts | 311° |
| 2026-05-06 17:12 | 55.98141 | -12.12167 | 32046 ft | 289 kts | 311° |
| 2026-05-06 17:12 | 55.99524 | -12.14773 | 32023 ft | 288 kts | 310° |
| 2026-05-06 17:12 | 56.00885 | -12.17430 | 31953 ft | 290 kts | 309° |
| 2026-05-06 17:12 | 56.02205 | -12.20136 | 31880 ft | 291 kts | 308° |
| 2026-05-06 17:13 | 56.03502 | -12.22933 | 31868 ft | 291 kts | 307° |
| 2026-05-06 17:13 | 56.04752 | -12.25765 | 31890 ft | 288 kts | 306° |
| 2026-05-06 17:13 | 56.05947 | -12.28593 | 31925 ft | 287 kts | 304° |
| 2026-05-06 17:13 | 56.07122 | -12.31489 | 31930 ft | 286 kts | 303° |
| 2026-05-06 17:14 | 56.08265 | -12.34430 | 31898 ft | 286 kts | 303° |
| 2026-05-06 17:14 | 56.09380 | -12.37395 | 31866 ft | 287 kts | 302° |
| 2026-05-06 17:14 | 56.10454 | -12.40366 | 31821 ft | 287 kts | 301° |
| 2026-05-06 17:14 | 56.11507 | -12.43409 | 31810 ft | 287 kts | 300° |
| 2026-05-06 17:15 | 56.12527 | -12.46497 | 31813 ft | 286 kts | 299° |
| 2026-05-06 17:15 | 56.13502 | -12.49581 | 31821 ft | 285 kts | 298° |
| 2026-05-06 17:15 | 56.14451 | -12.52725 | 31858 ft | 284 kts | 297° |
| 2026-05-06 17:15 | 56.15344 | -12.55851 | 31833 ft | 283 kts | 296° |
| 2026-05-06 17:16 | 56.16196 | -12.59056 | 31793 ft | 284 kts | 294° |
| 2026-05-06 17:16 | 56.16976 | -12.62308 | 31732 ft | 285 kts | 292° |
| 2026-05-06 17:16 | 56.17690 | -12.65632 | 31710 ft | 285 kts | 290° |
| 2026-05-06 17:16 | 56.18323 | -12.68966 | 31719 ft | 284 kts | 288° |
| 2026-05-06 17:17 | 56.18887 | -12.72377 | 31732 ft | 283 kts | 286° |
| 2026-05-06 17:17 | 56.19366 | -12.75766 | 31723 ft | 282 kts | 284° |
| 2026-05-06 17:17 | 56.19767 | -12.79233 | 31672 ft | 283 kts | 282° |
| 2026-05-06 17:17 | 56.20085 | -12.82739 | 31616 ft | 284 kts | 280° |
| 2026-05-06 17:18 | 56.20335 | -12.86279 | 31580 ft | 285 kts | 278° |
| 2026-05-06 17:18 | 56.20517 | -12.89792 | 31602 ft | 284 kts | 277° |
| 2026-05-06 17:18 | 56.20636 | -12.93343 | 31627 ft | 283 kts | 275° |
| 2026-05-06 17:18 | 56.20696 | -12.96870 | 31617 ft | 283 kts | 274° |
| 2026-05-06 17:19 | 56.20698 | -13.00376 | 31565 ft | 284 kts | 272° |
| 2026-05-06 17:19 | 56.20646 | -13.03946 | 31518 ft | 286 kts | 271° |
| 2026-05-06 17:19 | 56.20539 | -13.07486 | 31497 ft | 286 kts | 269° |
| 2026-05-06 17:19 | 56.20375 | -13.11051 | 31510 ft | 285 kts | 268° |
| 2026-05-06 17:20 | 56.20156 | -13.14598 | 31534 ft | 285 kts | 266° |
| 2026-05-06 17:20 | 56.19878 | -13.18087 | 31520 ft | 285 kts | 265° |
| 2026-05-06 17:20 | 56.19531 | -13.21629 | 31468 ft | 287 kts | 263° |
| 2026-05-06 17:20 | 56.19125 | -13.25115 | 31404 ft | 289 kts | 262° |
| 2026-05-06 17:21 | 56.18653 | -13.28659 | 31359 ft | 290 kts | 260° |
| 2026-05-06 17:21 | 56.18141 | -13.32138 | 31372 ft | 290 kts | 259° |
| 2026-05-06 17:21 | 56.17592 | -13.35612 | 31402 ft | 289 kts | 258° |
| 2026-05-06 17:21 | 56.17020 | -13.39077 | 31403 ft | 288 kts | 258° |
| 2026-05-06 17:22 | 56.16435 | -13.42527 | 31356 ft | 289 kts | 258° |
| 2026-05-06 17:22 | 56.15840 | -13.45949 | 31285 ft | 291 kts | 257° |
| 2026-05-06 17:22 | 56.15221 | -13.49433 | 31247 ft | 292 kts | 257° |
| 2026-05-06 17:22 | 56.14805 | -13.51730 | 31241 ft | 292 kts | 257° |
| 2026-05-06 17:23 | 56.13957 | -13.56321 | 31257 ft | 291 kts | 256° |
| 2026-05-06 17:23 | 56.13315 | -13.59765 | 31252 ft | 291 kts | 256° |
| 2026-05-06 17:23 | 56.12885 | -13.62052 | 31239 ft | 291 kts | 256° |
| 2026-05-06 17:23 | 56.12230 | -13.65511 | 31213 ft | 292 kts | 256° |
| 2026-05-06 17:24 | 56.11588 | -13.68933 | 31185 ft | 292 kts | 256° |
| 2026-05-06 17:24 | 56.10956 | -13.72396 | 31176 ft | 292 kts | 257° |
| 2026-05-06 17:24 | 56.10342 | -13.75872 | 31163 ft | 291 kts | 257° |
| 2026-05-06 17:24 | 56.09749 | -13.79344 | 31140 ft | 291 kts | 258° |
| 2026-05-06 17:25 | 56.09177 | -13.82806 | 31123 ft | 291 kts | 258° |
| 2026-05-06 17:25 | 56.08609 | -13.86301 | 31095 ft | 291 kts | 258° |
| 2026-05-06 17:25 | 56.08041 | -13.89805 | 31057 ft | 292 kts | 258° |
| 2026-05-06 17:25 | 56.07483 | -13.93277 | 31025 ft | 293 kts | 258° |
| 2026-05-06 17:26 | 56.06929 | -13.96792 | 31036 ft | 292 kts | 258° |
| 2026-05-06 17:26 | 56.06394 | -14.00257 | 31082 ft | 290 kts | 259° |
| 2026-05-06 17:26 | 56.05858 | -14.03755 | 31087 ft | 289 kts | 258° |
| 2026-05-06 17:26 | 56.05324 | -14.07212 | 31051 ft | 290 kts | 258° |
| 2026-05-06 17:27 | 56.04769 | -14.10708 | 30992 ft | 291 kts | 257° |
| 2026-05-06 17:27 | 56.04165 | -14.14185 | 30965 ft | 292 kts | 256° |
| 2026-05-06 17:27 | 56.03510 | -14.17603 | 30973 ft | 292 kts | 255° |
| 2026-05-06 17:27 | 56.02794 | -14.21008 | 30997 ft | 292 kts | 253° |
| 2026-05-06 17:28 | 56.02020 | -14.24389 | 31016 ft | 291 kts | 252° |
| 2026-05-06 17:28 | 56.01200 | -14.27666 | 31002 ft | 291 kts | 250° |
| 2026-05-06 17:28 | 56.00349 | -14.31012 | 30352 ft | 310 kts | 256° |